Time;durP1;ratioP1;P1;durP2;ratioP2;P2;SDS_P1;SDS_P2;PMS_P1;PMS_P2;Temp;Humidity;BMP_temperature;BMP_pressure;BME280_temperature;BME280_humidity;BME280_pressure;Samples;Min_cycle;Max_cycle;Signal;HPM_P1;HPM_P2
2021/09/30 00:00:23;;;;;;;3.67;1.98;;;15.40;99.90;;;;;;5038628;28;20028;-76
2021/09/30 00:02:49;;;;;;;6.13;2.10;;;15.40;99.90;;;;;;5052564;28;20472;-76
2021/09/30 00:05:15;;;;;;;4.55;1.98;;;15.50;99.90;;;;;;5048164;28;20049;-76
2021/09/30 00:07:41;;;;;;;4.68;1.63;;;15.50;99.90;;;;;;5053236;28;20128;-76
2021/09/30 00:10:10;;;;;;;4.00;2.08;;;15.40;99.90;;;;;;5050521;28;20029;-76
2021/09/30 00:12:52;;;;;;;3.80;1.55;;;15.60;99.90;;;;;;5040300;28;20021;-76
2021/09/30 00:15:54;;;;;;;4.90;1.77;;;15.40;99.90;;;;;;5052100;28;20036;-76
2021/09/30 00:34:47;;;;;;;3.63;1.67;;;15.10;99.90;;;;;;5033970;28;20575;-76
2021/09/30 02:58:47;;;;;;;3.70;1.92;;;13.90;99.90;;;;;;5030666;28;20153;-76
2021/09/30 03:01:22;;;;;;;5.60;1.60;;;13.90;99.90;;;;;;5030709;28;20125;-74
2021/09/30 03:03:48;;;;;;;4.97;1.92;;;13.80;99.90;;;;;;5024875;28;20083;-74
2021/09/30 03:06:15;;;;;;;4.45;1.80;;;13.80;99.90;;;;;;5023186;28;20499;-74
2021/09/30 03:08:46;;;;;;;4.30;2.00;;;13.90;99.90;;;;;;5035126;28;20044;-74
2021/09/30 03:11:13;;;;;;;4.03;2.30;;;13.90;99.90;;;;;;5038348;28;20040;-75
2021/09/30 03:13:40;;;;;;;5.30;2.10;;;13.90;99.90;;;;;;5038006;28;20022;-74
2021/09/30 03:23:34;;;;;;;9.25;2.15;;;13.80;99.90;;;;;;5037387;28;20120;-74
2021/09/30 03:26:01;;;;;;;4.30;2.30;;;13.70;99.90;;;;;;5026086;28;20105;-74
2021/09/30 03:28:28;;;;;;;4.50;2.55;;;13.70;99.90;;;;;;5034003;28;20112;-74
2021/09/30 03:30:56;;;;;;;4.50;2.67;;;13.70;99.90;;;;;;5027436;28;20503;-74
2021/09/30 03:33:23;;;;;;;5.22;3.35;;;13.60;99.90;;;;;;5029977;28;20057;-74
2021/09/30 03:35:50;;;;;;;4.85;2.35;;;13.70;99.90;;;;;;5036554;28;20033;-74
2021/09/30 03:38:17;;;;;;;6.60;3.40;;;13.60;99.90;;;;;;5030432;28;20033;-74
2021/09/30 03:40:43;;;;;;;4.88;2.40;;;13.60;99.90;;;;;;5028233;28;20033;-74
2021/09/30 03:43:09;;;;;;;7.13;2.55;;;13.70;99.90;;;;;;5032692;28;20420;-74
2021/09/30 03:45:36;;;;;;;3.85;2.30;;;13.70;99.90;;;;;;5044470;28;20025;-74
2021/09/30 03:48:03;;;;;;;6.30;2.97;;;13.70;99.90;;;;;;5040664;28;20041;-74
2021/09/30 04:01:05;;;;;;;4.35;1.95;;;14.10;99.90;;;;;;5026913;28;20095;-74
2021/09/30 04:03:31;;;;;;;4.57;1.95;;;14.30;99.90;;;;;;5033084;28;20037;-74
2021/09/30 04:05:56;;;;;;;5.68;2.00;;;14.30;99.90;;;;;;5046305;28;20178;-74
2021/09/30 04:08:22;;;;;;;5.78;2.75;;;14.20;99.90;;;;;;5040013;28;20506;-74
2021/09/30 04:10:48;;;;;;;3.92;2.17;;;14.20;99.90;;;;;;5037482;28;20114;-74
2021/09/30 04:13:14;;;;;;;4.78;2.15;;;13.90;99.90;;;;;;5026142;28;20040;-74
2021/09/30 04:15:40;;;;;;;5.70;2.45;;;13.90;99.90;;;;;;5025842;28;20108;-74
2021/09/30 04:18:06;;;;;;;3.45;2.00;;;13.80;99.90;;;;;;5025911;28;20065;-74
2021/09/30 04:20:32;;;;;;;4.05;1.80;;;13.80;99.90;;;;;;5038330;28;20029;-74
2021/09/30 04:23:03;;;;;;;10.55;2.78;;;13.80;99.90;;;;;;5038374;28;20025;-74
2021/09/30 04:25:29;;;;;;;4.63;2.20;;;13.80;99.90;;;;;;5025865;28;20064;-74
2021/09/30 04:27:54;;;;;;;4.38;2.00;;;13.80;99.90;;;;;;5026101;28;20043;-74
2021/09/30 04:30:20;;;;;;;3.97;1.83;;;13.80;99.90;;;;;;5034142;28;20469;-74
2021/09/30 04:32:46;;;;;;;3.65;1.98;;;13.80;99.90;;;;;;5041376;28;20120;-74
2021/09/30 04:35:11;;;;;;;3.67;2.10;;;13.70;99.90;;;;;;5025162;28;20029;-74
2021/09/30 04:37:37;;;;;;;3.78;2.20;;;13.70;99.90;;;;;;5035168;28;20483;-74
2021/09/30 04:40:04;;;;;;;5.18;2.70;;;13.70;99.90;;;;;;5039727;28;20025;-74
2021/09/30 04:42:30;;;;;;;4.68;2.42;;;13.60;99.90;;;;;;5023648;28;20064;-74
2021/09/30 04:44:56;;;;;;;4.60;2.65;;;13.70;99.90;;;;;;5024786;28;20032;-74
2021/09/30 04:47:22;;;;;;;5.00;2.80;;;13.70;99.90;;;;;;5024548;28;20033;-74
2021/09/30 04:49:48;;;;;;;4.68;2.70;;;13.70;99.90;;;;;;5022819;28;20571;-74
2021/09/30 04:52:14;;;;;;;6.38;2.75;;;13.60;99.90;;;;;;5024271;28;20033;-74
2021/09/30 04:54:40;;;;;;;6.00;3.42;;;13.60;99.90;;;;;;5023441;28;20032;-74
2021/09/30 04:57:06;;;;;;;7.07;4.25;;;13.60;99.90;;;;;;5024877;28;20094;-74
2021/09/30 04:59:32;;;;;;;6.57;3.42;;;13.60;99.90;;;;;;5030017;28;20120;-74
2021/09/30 05:01:58;;;;;;;7.88;4.22;;;13.50;99.90;;;;;;5025135;28;20025;-74
2021/09/30 05:04:24;;;;;;;8.15;5.35;;;13.30;99.90;;;;;;5033824;28;20402;-74
2021/09/30 05:06:51;;;;;;;8.50;5.07;;;13.30;99.90;;;;;;5044362;28;20620;-74
2021/09/30 05:09:17;;;;;;;11.15;6.25;;;13.30;99.90;;;;;;5032059;28;20513;-74
2021/09/30 05:11:51;;;;;;;8.93;5.20;;;13.30;99.90;;;;;;5035803;28;20029;-74
2021/09/30 05:14:17;;;;;;;10.02;5.65;;;13.30;99.90;;;;;;5024404;28;20051;-74
2021/09/30 05:16:42;;;;;;;9.85;5.63;;;13.20;99.90;;;;;;5027738;28;20025;-74
2021/09/30 05:19:08;;;;;;;9.63;5.28;;;13.20;99.90;;;;;;5040309;28;20075;-74
2021/09/30 05:21:34;;;;;;;10.65;6.05;;;13.20;99.90;;;;;;5042714;28;20471;-74
2021/09/30 05:24:00;;;;;;;9.10;5.43;;;13.20;99.90;;;;;;5024439;28;20028;-74
2021/09/30 05:26:28;;;;;;;9.82;5.32;;;13.30;99.90;;;;;;5024776;28;20021;-74
2021/09/30 05:28:55;;;;;;;8.40;5.28;;;13.30;99.90;;;;;;5023041;28;20647;-74
2021/09/30 05:31:21;;;;;;;7.32;4.47;;;13.40;99.90;;;;;;5049748;28;20609;-76
2021/09/30 05:33:47;;;;;;;7.97;4.32;;;13.50;99.90;;;;;;5041887;28;20028;-73
2021/09/30 05:36:12;;;;;;;7.40;4.20;;;13.50;99.90;;;;;;5032324;28;20026;-73
2021/09/30 05:38:38;;;;;;;7.47;4.15;;;13.50;99.90;;;;;;5030786;28;20620;-76
2021/09/30 05:41:05;;;;;;;7.25;4.00;;;13.60;99.90;;;;;;5029142;28;20475;-75
2021/09/30 05:43:34;;;;;;;10.32;4.28;;;13.60;99.90;;;;;;5022746;28;20037;-75
2021/09/30 05:46:00;;;;;;;7.35;3.50;;;13.70;99.90;;;;;;5022386;28;20017;-75
2021/09/30 05:48:28;;;;;;;5.65;2.17;;;13.70;99.90;;;;;;5022098;28;20025;-75
2021/09/30 05:50:55;;;;;;;5.97;3.00;;;13.80;99.90;;;;;;5032463;28;20025;-75
2021/09/30 05:53:21;;;;;;;4.50;2.33;;;13.80;99.90;;;;;;5042606;28;20033;-75
2021/09/30 05:55:49;;;;;;;4.72;2.42;;;13.80;99.90;;;;;;5043245;28;20076;-74
2021/09/30 05:58:16;;;;;;;5.30;3.00;;;13.90;99.90;;;;;;5039177;28;20139;-75
2021/09/30 06:01:03;;;;;;;7.45;2.60;;;13.80;99.90;;;;;;5024049;28;20033;-75
2021/09/30 06:14:14;;;;;;;4.60;2.38;;;14.00;99.90;;;;;;5005314;28;20554;-75
2021/09/30 06:16:48;;;;;;;6.97;2.55;;;14.00;99.90;;;;;;5043596;28;20029;-75
2021/09/30 06:19:19;;;;;;;;;;;14.00;99.90;;;;;;5043830;28;20465;-74
2021/09/30 06:21:49;;;;;;;5.38;2.85;;;14.00;99.90;;;;;;5043791;28;19905;-75
2021/09/30 06:24:20;;;;;;;8.77;3.50;;;14.00;99.90;;;;;;5033137;28;20388;-75
2021/09/30 06:26:47;;;;;;;5.50;3.28;;;14.00;99.90;;;;;;5036968;28;20114;-75
2021/09/30 06:29:14;;;;;;;5.38;3.10;;;14.00;99.90;;;;;;5043397;28;20104;-76
2021/09/30 06:31:40;;;;;;;5.22;3.05;;;14.10;99.90;;;;;;5041879;28;20021;-75
2021/09/30 06:34:06;;;;;;;5.35;3.13;;;14.20;99.90;;;;;;5043956;28;20079;-74
2021/09/30 06:36:32;;;;;;;4.82;2.70;;;14.30;99.90;;;;;;5035936;28;20029;-74
2021/09/30 06:38:57;;;;;;;5.30;2.92;;;14.30;99.90;;;;;;5025054;28;20472;-74
2021/09/30 06:41:23;;;;;;;6.45;2.80;;;14.70;99.90;;;;;;5026951;28;20021;-75
2021/09/30 06:43:49;;;;;;;5.60;3.17;;;14.50;99.90;;;;;;5025499;28;20038;-74
2021/09/30 06:46:14;;;;;;;5.78;3.45;;;14.50;99.90;;;;;;5027694;28;20160;-74
2021/09/30 06:48:40;;;;;;;4.28;2.42;;;14.40;99.90;;;;;;5045446;28;20021;-74
2021/09/30 06:51:06;;;;;;;19.83;2.50;;;14.40;99.90;;;;;;5045165;28;20021;-76
2021/09/30 06:53:32;;;;;;;5.05;3.15;;;14.40;99.90;;;;;;5045454;28;20041;-75
2021/09/30 06:56:02;;;;;;;8.73;2.47;;;14.50;99.90;;;;;;5045372;28;20112;-75
2021/09/30 06:58:27;;;;;;;5.75;2.55;;;14.50;99.90;;;;;;5029417;28;20069;-75
2021/09/30 07:00:56;;;;;;;6.22;3.58;;;14.50;99.90;;;;;;5027284;28;20115;-75
2021/09/30 07:03:23;;;;;;;5.25;3.03;;;14.50;99.90;;;;;;5026807;28;20044;-76
2021/09/30 07:05:49;;;;;;;5.97;3.55;;;14.50;99.90;;;;;;5028032;28;20049;-75
2021/09/30 07:08:15;;;;;;;5.93;3.50;;;14.50;99.90;;;;;;5042351;28;20678;-74
2021/09/30 07:10:42;;;;;;;7.05;3.53;;;14.50;99.90;;;;;;5050750;28;20053;-74
2021/09/30 07:13:07;;;;;;;5.15;2.90;;;14.60;99.90;;;;;;5050624;28;20021;-75
2021/09/30 07:15:33;;;;;;;6.22;3.38;;;14.70;99.90;;;;;;5050591;28;20017;-75
2021/09/30 07:18:08;;;;;;;5.75;2.88;;;14.70;99.90;;;;;;5043348;28;20589;-76
2021/09/30 07:20:34;;;;;;;5.13;3.03;;;14.80;99.90;;;;;;5030785;28;20052;-75
2021/09/30 07:22:59;;;;;;;8.35;3.38;;;14.90;99.90;;;;;;5040346;28;20067;-75
2021/09/30 07:25:25;;;;;;;10.48;3.47;;;15.00;99.90;;;;;;5050260;28;20059;-76
2021/09/30 07:27:51;;;;;;;5.22;3.17;;;15.20;99.90;;;;;;5050306;28;20025;-74
2021/09/30 07:30:16;;;;;;;5.72;3.25;;;15.30;99.90;;;;;;5050428;28;20040;-75
2021/09/30 07:32:42;;;;;;;6.57;3.42;;;15.50;99.90;;;;;;5045414;28;20120;-75
2021/09/30 07:35:08;;;;;;;4.78;3.03;;;15.80;99.90;;;;;;5030354;28;20072;-74
2021/09/30 07:37:34;;;;;;;5.60;2.45;;;15.90;99.90;;;;;;5030412;28;20120;-76
2021/09/30 07:39:59;;;;;;;5.28;2.28;;;16.00;99.90;;;;;;5028884;28;20108;-75
2021/09/30 07:42:25;;;;;;;4.95;1.88;;;16.10;99.90;;;;;;5029822;28;20028;-75
2021/09/30 07:44:51;;;;;;;5.25;2.50;;;16.20;99.90;;;;;;5046605;28;20490;-75
2021/09/30 07:47:17;;;;;;;6.70;2.30;;;16.10;99.90;;;;;;5049850;28;20464;-75
2021/09/30 07:49:42;;;;;;;7.65;2.20;;;16.20;99.90;;;;;;5048411;28;20039;-75
2021/09/30 07:52:08;;;;;;;5.47;2.50;;;16.30;99.90;;;;;;5049807;28;20590;-75
2021/09/30 07:54:34;;;;;;;4.85;2.03;;;16.40;99.90;;;;;;5036599;28;20064;-76
2021/09/30 07:56:59;;;;;;;7.78;2.58;;;16.40;99.90;;;;;;5030120;28;20079;-75
2021/09/30 07:59:27;;;;;;;6.78;2.58;;;16.50;99.90;;;;;;5029690;28;20033;-75
2021/09/30 08:01:53;;;;;;;9.93;2.40;;;16.30;99.90;;;;;;5026828;28;20025;-74
2021/09/30 08:04:19;;;;;;;4.95;2.60;;;16.30;99.90;;;;;;5034061;28;20067;-74
2021/09/30 08:06:45;;;;;;;4.68;2.38;;;16.20;99.90;;;;;;5049191;28;20063;-75
2021/09/30 08:09:10;;;;;;;5.93;2.30;;;16.30;99.90;;;;;;5049619;28;20078;-75
2021/09/30 08:11:36;;;;;;;7.25;2.53;;;16.30;99.90;;;;;;5049504;28;20017;-75
2021/09/30 08:14:03;;;;;;;7.30;2.88;;;16.40;99.90;;;;;;5046085;28;20025;-75
2021/09/30 08:16:29;;;;;;;6.90;2.67;;;16.40;99.90;;;;;;5029328;28;20049;-75
2021/09/30 08:18:56;;;;;;;4.13;2.55;;;16.30;99.90;;;;;;5029435;28;20091;-75
2021/09/30 08:21:22;;;;;;;6.00;2.75;;;16.30;99.90;;;;;;5029301;28;20021;-75
2021/09/30 08:23:48;;;;;;;4.90;2.30;;;16.30;99.90;;;;;;5029387;28;20064;-76
2021/09/30 08:26:18;;;;;;;6.15;2.72;;;16.40;99.90;;;;;;5046515;28;20053;-75
2021/09/30 08:28:48;;;;;;;6.50;2.30;;;16.50;99.90;;;;;;5049351;28;20033;-75
2021/09/30 08:31:14;;;;;;;5.20;2.17;;;16.50;99.90;;;;;;5048976;28;20021;-75
2021/09/30 08:33:42;;;;;;;6.97;2.72;;;16.40;99.90;;;;;;5048294;28;20024;-75
2021/09/30 08:36:12;;;;;;;4.75;2.53;;;16.40;99.90;;;;;;5034374;28;20036;-75
2021/09/30 08:38:38;;;;;;;5.88;2.28;;;16.30;99.90;;;;;;5027158;28;20407;-75
2021/09/30 08:41:04;;;;;;;8.07;2.60;;;16.30;99.90;;;;;;5026701;28;20018;-75
2021/09/30 08:43:30;;;;;;;8.13;2.22;;;16.40;99.90;;;;;;5027007;28;20029;-76
2021/09/30 08:45:56;;;;;;;4.88;1.52;;;16.40;99.90;;;;;;5035028;28;20639;-76
2021/09/30 08:48:22;;;;;;;3.83;2.15;;;16.40;99.90;;;;;;5046422;28;20029;-76
2021/09/30 08:50:48;;;;;;;4.70;2.20;;;16.40;99.90;;;;;;5046462;28;20029;-76
2021/09/30 08:53:14;;;;;;;4.00;2.00;;;16.40;99.90;;;;;;5046412;28;20060;-75
2021/09/30 08:55:41;;;;;;;4.53;1.83;;;16.50;99.90;;;;;;5042397;28;20048;-78
2021/09/30 08:58:08;;;;;;;7.15;2.30;;;16.60;99.90;;;;;;5026464;28;20034;-76
2021/09/30 09:00:39;;;;;;;5.75;2.55;;;16.50;99.90;;;;;;5028058;28;20113;-76
2021/09/30 09:03:06;;;;;;;6.05;2.45;;;16.50;99.90;;;;;;5027627;28;20025;-76
2021/09/30 09:05:32;;;;;;;8.05;2.22;;;16.60;99.90;;;;;;5027923;28;20756;-76
2021/09/30 09:08:01;;;;;;;3.25;1.80;;;16.60;99.90;;;;;;5028178;28;20038;-76
2021/09/30 09:10:35;;;;;;;4.65;2.83;;;16.50;99.90;;;;;;5025895;28;20049;-77
2021/09/30 09:13:09;;;;;;;6.35;2.13;;;16.60;99.90;;;;;;5024996;28;20040;-76
2021/09/30 09:15:59;;;;;;;5.03;2.60;;;16.60;99.90;;;;;;5024708;28;20108;-77
2021/09/30 09:18:29;;;;;;;5.15;2.15;;;16.70;99.90;;;;;;5026823;28;20044;-76
2021/09/30 09:21:15;;;;;;;4.97;2.10;;;16.70;99.90;;;;;;5027544;28;20124;-75
2021/09/30 09:23:53;;;;;;;6.63;2.38;;;16.90;99.90;;;;;;5027725;28;20086;-76
2021/09/30 09:26:28;;;;;;;5.55;2.10;;;17.00;99.90;;;;;;5027580;28;20108;-76
2021/09/30 09:29:05;;;;;;;4.75;2.25;;;16.90;99.90;;;;;;5046620;28;20028;-76
2021/09/30 09:31:35;;;;;;;4.30;2.30;;;16.70;99.90;;;;;;5038565;28;20357;-76
2021/09/30 09:34:17;;;;;;;4.68;2.40;;;16.60;99.90;;;;;;5027374;28;20060;-75
2021/09/30 09:36:43;;;;;;;3.90;1.90;;;16.60;99.90;;;;;;5027462;28;20025;-76
2021/09/30 09:39:09;;;;;;;6.28;2.03;;;16.50;99.90;;;;;;5027166;28;20041;-76
2021/09/30 09:41:35;;;;;;;4.95;2.40;;;16.70;99.90;;;;;;5034673;28;20032;-75
2021/09/30 09:44:04;;;;;;;4.03;1.98;;;16.70;99.90;;;;;;5046646;28;20461;-75
2021/09/30 09:46:35;;;;;;;4.68;2.10;;;16.80;99.90;;;;;;5028969;28;20029;-76
2021/09/30 09:49:02;;;;;;;4.68;2.38;;;16.80;99.90;;;;;;5044089;28;20028;-76
2021/09/30 09:51:35;;;;;;;6.43;1.90;;;16.70;99.90;;;;;;5045538;28;20033;-76
2021/09/30 09:54:06;;;;;;;5.57;1.58;;;16.90;99.90;;;;;;5045392;28;20089;-76
2021/09/30 09:56:32;;;;;;;4.60;2.45;;;16.90;99.90;;;;;;5045300;28;20029;-77
2021/09/30 09:58:58;;;;;;;15.05;2.42;;;17.00;99.90;;;;;;5030228;28;20044;-76
2021/09/30 10:01:37;;;;;;;11.55;2.00;;;17.20;99.90;;;;;;5026993;28;20100;-76
2021/09/30 10:04:03;;;;;;;5.85;1.88;;;17.40;99.90;;;;;;5026893;28;20029;-76
2021/09/30 10:06:31;;;;;;;3.95;1.95;;;17.40;99.90;;;;;;5044175;28;20106;-76
2021/09/30 10:09:02;;;;;;;7.75;1.70;;;17.50;99.90;;;;;;5046844;28;20074;-76
2021/09/30 10:11:28;;;;;;;4.15;1.60;;;17.50;99.90;;;;;;5046893;28;20067;-76
2021/09/30 10:13:59;;;;;;;8.93;1.83;;;18.00;99.90;;;;;;5046886;28;20025;-76
2021/09/30 10:16:26;;;;;;;4.55;2.05;;;18.00;99.90;;;;;;5031547;28;20079;-76
2021/09/30 10:18:57;;;;;;;3.55;1.65;;;18.00;99.90;;;;;;5026412;28;20231;-77
2021/09/30 10:21:24;;;;;;;3.45;2.00;;;18.20;99.90;;;;;;5026531;28;20083;-76
2021/09/30 10:23:53;;;;;;;4.32;2.17;;;18.20;99.90;;;;;;5026691;28;20033;-76
2021/09/30 10:26:33;;;;;;;4.25;2.03;;;18.40;99.90;;;;;;5036835;28;20094;-76
2021/09/30 10:29:00;;;;;;;3.75;1.90;;;18.70;99.30;;;;;;5046684;28;20112;-76
2021/09/30 10:31:37;;;;;;;4.45;1.77;;;18.70;98.40;;;;;;5026828;28;20155;-76
2021/09/30 10:34:29;;;;;;;2.83;1.52;;;18.70;98.30;;;;;;5027466;28;20609;-76
2021/09/30 10:36:54;;;;;;;5.35;1.58;;;19.00;98.90;;;;;;5026656;28;20025;-76
2021/09/30 10:39:25;;;;;;;3.85;1.35;;;19.00;97.70;;;;;;5026919;28;20037;-76
2021/09/30 10:42:14;;;;;;;2.65;1.40;;;19.10;97.90;;;;;;5038248;28;20656;-76
2021/09/30 10:44:40;;;;;;;4.60;1.58;;;19.00;97.30;;;;;;5038299;28;20026;-76
2021/09/30 10:47:07;;;;;;;4.65;1.30;;;19.20;97.90;;;;;;5028584;28;20103;-76
2021/09/30 10:50:00;;;;;;;6.82;1.40;;;19.70;97.40;;;;;;5028781;28;20032;-76
2021/09/30 10:52:31;;;;;;;7.05;1.80;;;19.80;96.60;;;;;;5027819;28;20069;-76
2021/09/30 10:55:06;;;;;;;3.72;1.33;;;19.60;96.10;;;;;;5039365;28;20390;-76
2021/09/30 10:57:40;;;;;;;2.88;1.48;;;19.70;96.80;;;;;;5048591;28;20498;-77
2021/09/30 11:00:35;;;;;;;1.45;0.70;;;19.80;96.60;;;;;;5048768;28;20064;-76
2021/09/30 11:03:09;;;;;;;2.33;1.00;;;20.00;96.80;;;;;;5050088;28;20505;-76
2021/09/30 11:05:41;;;;;;;2.28;1.20;;;20.10;96.10;;;;;;5036670;28;20361;-76
2021/09/30 11:08:24;;;;;;;4.22;1.00;;;20.30;96.10;;;;;;5038448;28;20462;-76
2021/09/30 11:11:05;;;;;;;2.55;1.30;;;20.30;95.90;;;;;;5050024;28;20029;-77
2021/09/30 11:13:38;;;;;;;2.63;1.08;;;20.60;96.10;;;;;;5049880;28;20032;-78
2021/09/30 11:16:09;;;;;;;3.30;1.30;;;20.70;96.40;;;;;;5049703;28;20371;-76
2021/09/30 11:18:50;;;;;;;3.08;1.25;;;20.90;95.80;;;;;;5040142;28;20029;-76
2021/09/30 11:21:31;;;;;;;1.92;1.00;;;21.10;95.80;;;;;;5029795;28;20082;-76
2021/09/30 11:24:03;;;;;;;3.42;1.25;;;21.30;95.00;;;;;;5029964;28;20029;-76
2021/09/30 11:26:32;;;;;;;3.03;1.58;;;21.10;94.80;;;;;;5030012;28;20476;-77
2021/09/30 11:29:21;;;;;;;4.38;1.40;;;21.20;94.90;;;;;;5038802;28;20017;-75
2021/09/30 11:31:53;;;;;;;4.03;1.65;;;21.30;94.60;;;;;;5045610;28;20036;-76
2021/09/30 11:34:28;;;;;;;2.70;1.60;;;21.20;94.70;;;;;;5038503;28;20025;-76
2021/09/30 11:36:59;;;;;;;4.13;1.50;;;21.30;94.20;;;;;;5037113;28;20036;-77
2021/09/30 11:39:32;;;;;;;2.60;1.30;;;21.50;93.50;;;;;;5045435;28;20111;-77
2021/09/30 11:41:58;;;;;;;3.17;1.55;;;21.50;93.50;;;;;;5028083;28;20095;-77
2021/09/30 11:44:24;;;;;;;2.50;1.15;;;21.50;93.20;;;;;;5028309;28;20430;-76
2021/09/30 11:46:56;;;;;;;2.80;1.48;;;21.40;92.60;;;;;;5027454;28;20029;-76
2021/09/30 11:49:22;;;;;;;2.78;1.42;;;21.40;92.80;;;;;;5026833;28;20042;-77
2021/09/30 11:51:50;;;;;;;2.97;1.55;;;21.50;92.90;;;;;;5025869;28;20380;-76
2021/09/30 11:54:22;;;;;;;3.33;1.70;;;21.60;92.90;;;;;;5044867;28;20024;-77
2021/09/30 11:56:52;;;;;;;2.55;1.23;;;21.60;93.00;;;;;;5042993;28;20104;-77
2021/09/30 11:59:21;;;;;;;3.00;1.50;;;21.60;93.00;;;;;;5026531;28;20033;-76
2021/09/30 12:01:50;;;;;;;2.67;1.42;;;21.60;93.10;;;;;;5029347;28;20061;-76
2021/09/30 12:04:37;;;;;;;3.08;1.33;;;21.80;93.20;;;;;;5029587;28;20092;-76
2021/09/30 12:07:03;;;;;;;2.67;1.67;;;21.90;92.90;;;;;;5030637;28;20492;-76
2021/09/30 12:09:34;;;;;;;2.83;1.42;;;21.90;93.10;;;;;;5049331;28;20041;-76
2021/09/30 12:12:03;;;;;;;3.10;1.48;;;21.80;93.40;;;;;;5049647;28;20040;-76
2021/09/30 12:14:41;;;;;;;2.72;1.58;;;21.90;92.50;;;;;;5049459;28;20715;-76
2021/09/30 12:17:12;;;;;;;5.07;1.50;;;21.70;92.90;;;;;;5048809;28;20013;-77
2021/09/30 12:19:41;;;;;;;4.13;1.35;;;22.00;93.20;;;;;;5048221;28;20027;-76
2021/09/30 12:22:15;;;;;;;5.90;1.48;;;22.10;92.20;;;;;;5038150;28;20025;-76
2021/09/30 12:24:45;;;;;;;5.78;2.47;;;22.00;91.50;;;;;;5029188;28;20037;-76
2021/09/30 12:27:12;;;;;;;2.38;1.35;;;22.00;91.30;;;;;;5028958;28;20029;-77
2021/09/30 12:29:43;;;;;;;2.53;1.25;;;22.20;92.60;;;;;;5029130;28;20021;-76
2021/09/30 12:32:18;;;;;;;2.25;1.25;;;22.30;92.10;;;;;;5036136;28;20036;-78
2021/09/30 12:35:17;;;;;;;2.13;0.95;;;22.20;91.40;;;;;;5048967;28;20491;-76
2021/09/30 12:37:49;;;;;;;2.60;1.30;;;22.30;92.00;;;;;;5041228;28;20067;-76
2021/09/30 12:40:27;;;;;;;2.30;1.20;;;22.40;91.70;;;;;;5047073;28;20379;-76
2021/09/30 12:43:06;;;;;;;2.83;1.20;;;22.50;91.50;;;;;;5036786;28;20037;-76
2021/09/30 12:45:37;;;;;;;2.38;1.23;;;22.20;91.10;;;;;;5028730;28;20515;-76
2021/09/30 12:48:12;;;;;;;2.75;0.95;;;22.40;91.10;;;;;;5026851;28;20045;-76
2021/09/30 12:50:48;;;;;;;1.83;1.08;;;22.70;90.10;;;;;;5027013;28;20031;-76
2021/09/30 12:53:16;;;;;;;4.00;1.42;;;22.70;90.50;;;;;;5027737;28;20034;-76
2021/09/30 12:55:43;;;;;;;3.00;1.40;;;22.80;90.80;;;;;;5027021;28;20057;-76
2021/09/30 12:58:47;;;;;;;4.00;1.85;;;22.90;89.70;;;;;;5026848;28;20399;-76
2021/09/30 13:01:33;;;;;;;2.65;1.35;;;22.90;89.90;;;;;;5026487;28;20037;-76
2021/09/30 13:04:23;;;;;;;3.25;1.73;;;23.00;90.20;;;;;;5036636;28;20455;-78
2021/09/30 13:06:59;;;;;;;3.40;1.45;;;23.00;90.20;;;;;;5047707;28;20045;-77
2021/09/30 13:09:39;;;;;;;5.43;2.05;;;22.80;90.20;;;;;;5047994;28;20040;-77
2021/09/30 13:12:15;;;;;;;3.67;1.55;;;22.70;90.50;;;;;;5048002;28;20032;-76
2021/09/30 13:14:48;;;;;;;2.97;1.42;;;22.70;90.70;;;;;;5036340;28;20494;-76
2021/09/30 13:17:18;;;;;;;4.10;1.75;;;22.60;90.00;;;;;;5027349;28;20041;-76
2021/09/30 13:19:58;;;;;;;4.25;1.27;;;22.60;90.20;;;;;;5027775;28;20029;-77
2021/09/30 13:22:43;;;;;;;3.05;1.52;;;22.60;90.20;;;;;;5027538;28;20364;-77
2021/09/30 13:25:16;;;;;;;2.92;1.35;;;22.60;90.10;;;;;;5038595;28;20032;-76
2021/09/30 13:27:44;;;;;;;3.97;1.20;;;22.50;90.20;;;;;;5046072;28;20024;-77
2021/09/30 13:30:22;;;;;;;4.25;1.10;;;22.40;90.60;;;;;;5027327;28;20116;-77
2021/09/30 13:32:49;;;;;;;3.15;1.23;;;22.40;89.80;;;;;;5027542;28;20013;-76
2021/09/30 13:35:16;;;;;;;2.58;1.33;;;22.60;90.20;;;;;;5027410;28;20018;-77
2021/09/30 13:37:43;;;;;;;4.97;1.25;;;22.40;90.10;;;;;;5027470;28;20053;-77
2021/09/30 13:40:11;;;;;;;3.75;1.38;;;22.50;90.10;;;;;;5043527;28;20021;-77
2021/09/30 13:42:39;;;;;;;2.33;1.17;;;22.60;90.20;;;;;;5047161;28;20097;-76
2021/09/30 13:45:08;;;;;;;8.43;1.48;;;22.30;89.90;;;;;;5029549;28;20037;-76
2021/09/30 13:47:34;;;;;;;5.55;1.30;;;22.10;90.80;;;;;;5026864;28;20157;-76
2021/09/30 13:50:00;;;;;;;2.97;1.40;;;22.00;90.90;;;;;;5037207;28;20110;-77
2021/09/30 13:52:28;;;;;;;3.92;1.40;;;21.90;91.00;;;;;;5033830;28;20056;-76
2021/09/30 13:54:55;;;;;;;2.75;1.15;;;22.00;91.00;;;;;;5038146;28;20032;-76
2021/09/30 13:57:21;;;;;;;1.95;1.05;;;22.20;91.00;;;;;;5045155;28;20029;-77
2021/09/30 13:59:47;;;;;;;4.57;1.35;;;22.20;90.80;;;;;;5045628;28;20028;-76
2021/09/30 14:02:13;;;;;;;2.92;1.27;;;22.00;91.00;;;;;;5038874;28;20395;-77
2021/09/30 14:04:39;;;;;;;3.33;1.10;;;21.90;91.10;;;;;;5027065;28;20550;-76
2021/09/30 14:07:06;;;;;;;2.35;1.20;;;21.90;90.90;;;;;;5026665;28;20053;-77
2021/09/30 14:09:33;;;;;;;3.10;1.38;;;21.90;91.50;;;;;;5027364;28;20029;-77
2021/09/30 14:12:00;;;;;;;2.40;1.10;;;21.80;92.30;;;;;;5028155;28;20025;-78
2021/09/30 14:14:26;;;;;;;2.38;1.10;;;21.70;92.30;;;;;;5046539;28;20644;-76
2021/09/30 14:16:52;;;;;;;2.90;1.15;;;21.70;91.40;;;;;;5042702;28;20152;-77
2021/09/30 14:19:19;;;;;;;3.80;1.52;;;21.80;91.70;;;;;;5027040;28;20041;-76
2021/09/30 14:21:46;;;;;;;3.58;1.15;;;21.90;91.40;;;;;;5027184;28;20021;-77
2021/09/30 14:24:12;;;;;;;2.83;0.82;;;22.40;91.50;;;;;;5026855;28;20026;-76
2021/09/30 14:26:39;;;;;;;3.10;1.25;;;22.20;90.50;;;;;;5026851;28;20518;-77
2021/09/30 14:29:05;;;;;;;1.70;1.00;;;21.80;91.10;;;;;;5044920;28;20032;-77
2021/09/30 14:31:31;;;;;;;6.55;0.90;;;21.60;91.00;;;;;;5046742;28;20033;-77
2021/09/30 14:33:57;;;;;;;1.67;0.90;;;21.50;91.40;;;;;;5046759;28;20032;-76
2021/09/30 14:36:23;;;;;;;1.92;1.00;;;21.40;91.20;;;;;;5046469;28;20218;-77
2021/09/30 14:38:49;;;;;;;2.25;1.08;;;21.30;92.00;;;;;;5032748;28;20052;-77
2021/09/30 14:41:14;;;;;;;3.50;1.20;;;21.20;92.50;;;;;;5026839;28;20025;-76
2021/09/30 14:43:40;;;;;;;3.42;1.20;;;21.10;92.70;;;;;;5031864;28;20064;-77
2021/09/30 14:46:08;;;;;;;4.57;1.45;;;21.20;93.20;;;;;;5046053;28;20095;-77
2021/09/30 14:48:37;;;;;;;2.28;1.00;;;21.30;93.40;;;;;;5036515;28;20475;-76
2021/09/30 14:51:05;;;;;;;3.50;0.95;;;21.30;93.10;;;;;;5039166;28;20025;-78
2021/09/30 14:53:34;;;;;;;2.75;1.17;;;21.40;93.50;;;;;;5044868;28;20538;-77
2021/09/30 14:56:02;;;;;;;2.90;0.90;;;21.40;92.50;;;;;;5044800;28;20025;-77
2021/09/30 14:58:27;;;;;;;2.85;0.80;;;21.30;92.40;;;;;;5043337;28;20414;-77
2021/09/30 15:00:53;;;;;;;4.00;1.00;;;21.40;91.60;;;;;;5035943;28;20026;-77
2021/09/30 15:03:19;;;;;;;4.40;0.80;;;21.40;92.40;;;;;;5027040;28;20117;-76
2021/09/30 15:05:45;;;;;;;1.95;0.80;;;21.40;91.90;;;;;;5026079;28;20506;-76
2021/09/30 15:08:11;;;;;;;1.95;0.90;;;21.40;92.00;;;;;;5026449;28;20042;-77
2021/09/30 15:10:37;;;;;;;3.05;1.02;;;21.40;91.80;;;;;;5025470;28;20018;-76
2021/09/30 15:13:03;;;;;;;3.58;0.90;;;21.50;93.20;;;;;;5026510;28;20023;-76
2021/09/30 15:15:30;;;;;;;2.25;1.05;;;21.60;93.20;;;;;;5025196;28;20507;-77
2021/09/30 15:18:02;;;;;;;2.65;1.00;;;21.60;92.20;;;;;;5025894;28;20048;-76
2021/09/30 15:23:08;;;;;;;1.60;0.60;;;21.80;92.10;;;;;;5024482;28;20033;-76
2021/09/30 15:25:37;;;;;;;1.23;0.70;;;21.80;91.70;;;;;;5044496;28;20048;-77
2021/09/30 15:28:05;;;;;;;1.40;0.80;;;21.70;91.30;;;;;;5047493;28;20021;-77
2021/09/30 15:30:32;;;;;;;1.95;0.73;;;21.60;91.60;;;;;;5047034;28;20029;-77
2021/09/30 15:32:57;;;;;;;2.35;1.13;;;21.40;91.70;;;;;;5045370;28;20029;-76
2021/09/30 15:35:24;;;;;;;1.50;0.77;;;21.30;91.80;;;;;;5030398;28;20099;-76
2021/09/30 15:37:50;;;;;;;6.68;1.02;;;21.20;92.20;;;;;;5029783;28;20033;-76
2021/09/30 15:40:16;;;;;;;1.73;0.93;;;21.00;91.80;;;;;;5029272;28;20037;-76
2021/09/30 15:42:47;;;;;;;2.55;1.10;;;21.00;92.00;;;;;;5029757;28;20033;-76
2021/09/30 15:45:14;;;;;;;1.83;0.75;;;20.80;92.20;;;;;;5034420;28;20402;-76
2021/09/30 15:47:40;;;;;;;1.98;0.82;;;20.70;91.90;;;;;;5029645;28;20645;-76
2021/09/30 15:50:07;;;;;;;1.15;0.52;;;20.60;92.30;;;;;;5028879;28;20088;-76
2021/09/30 15:52:33;;;;;;;2.17;0.80;;;20.50;92.50;;;;;;5025823;28;20038;-77
2021/09/30 15:54:59;;;;;;;2.80;0.70;;;20.40;92.90;;;;;;5040356;28;20025;-76
2021/09/30 15:57:25;;;;;;;1.67;0.80;;;20.30;92.70;;;;;;5029199;28;20602;-80
2021/09/30 15:59:51;;;;;;;3.25;1.02;;;20.40;92.60;;;;;;5029424;28;20064;-75
2021/09/30 16:02:17;;;;;;;3.80;1.05;;;20.20;94.30;;;;;;5040731;28;20444;-76
2021/09/30 16:04:43;;;;;;;1.98;1.00;;;19.90;95.40;;;;;;5048995;28;20621;-76
2021/09/30 16:07:09;;;;;;;2.30;0.90;;;19.70;95.00;;;;;;5036908;28;20043;-76